createdAt,value
2018-07-23T00:04:43.196Z,95650.00
2018-07-23T00:10:12.459Z,95648.00
2018-07-23T00:15:42.494Z,95655.00
2018-07-23T00:21:11.770Z,95654.00
2018-07-23T00:26:41.009Z,95642.00
2018-07-23T00:32:10.513Z,95648.00
2018-07-23T00:37:39.726Z,95643.00
2018-07-23T00:43:09.099Z,95647.00
2018-07-23T00:48:38.411Z,95643.00
2018-07-23T00:54:07.681Z,95632.00
2018-07-23T00:59:37.048Z,95631.00
2018-07-23T01:05:06.406Z,95630.00
2018-07-23T01:10:35.824Z,95623.00
2018-07-23T01:16:04.805Z,95621.00
2018-07-23T01:21:34.447Z,95618.00
2018-07-23T01:27:03.765Z,95611.00
2018-07-23T01:32:32.999Z,95618.00
2018-07-23T01:38:02.284Z,95614.00
2018-07-23T01:43:31.544Z,95621.00
2018-07-23T01:49:00.844Z,95626.00
2018-07-23T01:54:30.234Z,95617.00
2018-07-23T01:59:59.506Z,95629.00
2018-07-23T02:05:28.830Z,95632.00
2018-07-23T02:10:58.120Z,95627.00
2018-07-23T02:16:28.483Z,95628.00
2018-07-23T02:21:57.755Z,95624.00
2018-07-23T02:27:26.987Z,95623.00
2018-07-23T02:32:56.235Z,95623.00
2018-07-23T02:38:25.539Z,95627.00
2018-07-23T02:43:54.862Z,95630.00
2018-07-23T02:49:24.171Z,95634.00
2018-07-23T02:54:53.517Z,95629.00
2018-07-23T03:00:22.902Z,95631.00
2018-07-23T03:05:52.281Z,95636.00
2018-07-23T03:11:21.788Z,95646.00
2018-07-23T03:16:52.212Z,95636.00
2018-07-23T03:22:21.526Z,95649.00
2018-07-23T03:27:50.990Z,95656.00
2018-07-23T03:33:20.280Z,95659.00
2018-07-23T03:38:49.578Z,95652.00
2018-07-23T03:44:18.949Z,95662.00
2018-07-23T03:49:48.325Z,95669.00
2018-07-23T03:55:18.230Z,95676.00
2018-07-23T04:00:47.531Z,95678.00
2018-07-23T04:06:16.866Z,95675.00
2018-07-23T04:11:46.792Z,95672.00
2018-07-23T04:17:16.062Z,95678.00
2018-07-23T04:22:45.509Z,95686.00
2018-07-23T04:28:14.742Z,95692.00
2018-07-23T04:33:44.046Z,95697.00
2018-07-23T04:39:13.357Z,95700.00
2018-07-23T04:44:42.601Z,95702.00
2018-07-23T04:50:11.825Z,95704.00
2018-07-23T04:55:41.114Z,95700.00
2018-07-23T05:01:10.335Z,95704.00
2018-07-23T05:06:39.657Z,95706.00
2018-07-23T05:12:08.880Z,95706.00
2018-07-23T05:17:38.124Z,95706.00
2018-07-23T05:23:07.432Z,95709.00
2018-07-23T05:28:36.659Z,95708.00
2018-07-23T05:34:05.892Z,95716.00
2018-07-23T05:39:35.231Z,95719.00
2018-07-23T05:45:04.955Z,95719.00
2018-07-23T05:50:34.169Z,95720.00
2018-07-23T05:56:03.506Z,95721.00
2018-07-23T06:01:32.807Z,95721.00
2018-07-23T06:07:02.257Z,95717.00
2018-07-23T06:12:31.339Z,95716.00
2018-07-23T06:18:00.611Z,95727.00
2018-07-23T06:23:29.847Z,95725.00
2018-07-23T06:28:59.257Z,95728.00
2018-07-23T06:34:28.581Z,95731.00
2018-07-23T06:39:57.913Z,95731.00
2018-07-23T06:45:27.283Z,95736.00
2018-07-23T06:50:56.521Z,95745.00
2018-07-23T06:56:25.892Z,95747.00
2018-07-23T07:01:55.218Z,95756.00
2018-07-23T07:07:24.548Z,95762.00
2018-07-23T07:12:54.346Z,95768.00
2018-07-23T07:18:23.644Z,95771.00
2018-07-23T07:23:53.027Z,95778.00
2018-07-23T07:29:22.343Z,95774.00
2018-07-23T07:34:51.718Z,95777.00
2018-07-23T07:40:21.081Z,95787.00
2018-07-23T07:45:50.451Z,95782.00
2018-07-23T07:51:19.879Z,95780.00
2018-07-23T07:56:49.280Z,95792.00
2018-07-23T08:02:18.579Z,95799.00
2018-07-23T08:07:47.935Z,95792.00
2018-07-23T08:13:17.324Z,95797.00
2018-07-23T08:18:46.708Z,95796.00
2018-07-23T08:24:16.012Z,95802.00
2018-07-23T08:29:45.255Z,95806.00
2018-07-23T08:35:14.480Z,95811.00
2018-07-23T08:40:43.803Z,95822.00
2018-07-23T08:46:13.019Z,95815.00
2018-07-23T08:51:42.276Z,95826.00
2018-07-23T08:57:13.651Z,95825.00
2018-07-23T09:02:42.915Z,95830.00
2018-07-23T09:08:12.482Z,95833.00
2018-07-23T09:13:41.669Z,95835.00
2018-07-23T09:19:11.027Z,95849.00
2018-07-23T09:24:40.228Z,95849.00
2018-07-23T09:30:14.717Z,95852.00
2018-07-23T09:35:43.884Z,95849.00
2018-07-23T09:41:13.201Z,95839.00
2018-07-23T09:46:42.449Z,95852.00
2018-07-23T09:52:11.674Z,95844.00
2018-07-23T09:57:40.941Z,95845.00
2018-07-23T10:03:10.275Z,95850.00
2018-07-23T10:08:39.371Z,95844.00
2018-07-23T10:14:09.024Z,95831.00
2018-07-23T10:19:38.265Z,95826.00
2018-07-23T10:25:07.534Z,95833.00
2018-07-23T10:30:36.788Z,95828.00
2018-07-23T10:36:06.025Z,95825.00
2018-07-23T10:41:35.239Z,95819.00
2018-07-23T10:47:04.508Z,95812.00
2018-07-23T10:52:33.688Z,95815.00
2018-07-23T10:58:03.019Z,95811.00
2018-07-23T11:03:32.247Z,95808.00
2018-07-23T11:09:01.593Z,95815.00
2018-07-23T11:14:30.845Z,95811.00
2018-07-23T11:20:00.102Z,95813.00
2018-07-23T11:25:43.491Z,95810.00
2018-07-23T11:30:58.829Z,95820.00
2018-07-23T11:36:28.036Z,95809.00
2018-07-23T11:41:57.258Z,95800.00
2018-07-23T11:47:26.496Z,95794.00
2018-07-23T11:52:55.742Z,95795.00
2018-07-23T11:58:25.388Z,95796.00
2018-07-23T12:03:54.726Z,95797.00
2018-07-23T12:09:24.120Z,95792.00
2018-07-23T12:14:53.385Z,95794.00
2018-07-23T12:20:22.707Z,95804.00
2018-07-23T12:25:52.036Z,95801.00
2018-07-23T12:31:21.458Z,95802.00
2018-07-23T12:36:50.855Z,95800.00
2018-07-23T12:42:20.604Z,95804.00
2018-07-23T12:47:49.998Z,95792.00
2018-07-23T12:53:19.402Z,95790.00
2018-07-23T12:58:49.060Z,95794.00
2018-07-23T13:04:20.511Z,95781.00
2018-07-23T13:09:50.306Z,95788.00
2018-07-23T13:15:20.814Z,95791.00
2018-07-23T13:20:50.348Z,95791.00
2018-07-23T13:26:20.320Z,95792.00
2018-07-23T13:31:50.047Z,95794.00
2018-07-23T13:37:19.628Z,95796.00
2018-07-23T13:42:49.528Z,95789.00
2018-07-23T13:48:18.980Z,95779.00
2018-07-23T13:53:48.523Z,95784.00
2018-07-23T13:59:17.925Z,95777.00
2018-07-23T14:04:47.557Z,95777.00
2018-07-23T14:10:17.055Z,95785.00
2018-07-23T14:15:46.666Z,95773.00
2018-07-23T14:21:15.941Z,95784.00
2018-07-23T14:26:45.333Z,95780.00
2018-07-23T14:32:14.622Z,95769.00
2018-07-23T14:37:43.966Z,95774.00
2018-07-23T14:43:13.338Z,95773.00
2018-07-23T14:48:42.628Z,95770.00
2018-07-23T14:54:12.926Z,95765.00
2018-07-23T14:59:42.176Z,95767.00
2018-07-23T15:05:11.428Z,95770.00
2018-07-23T15:10:40.712Z,95756.00
2018-07-23T15:16:09.969Z,95762.00
2018-07-23T15:21:39.201Z,95768.00
2018-07-23T15:27:08.293Z,95764.00
2018-07-23T15:32:37.598Z,95762.00
2018-07-23T15:38:06.867Z,95769.00
2018-07-23T15:43:36.339Z,95776.00
2018-07-23T15:49:05.584Z,95768.00
2018-07-23T15:54:35.261Z,95768.00
2018-07-23T16:00:05.576Z,95771.00
2018-07-23T16:05:34.923Z,95760.00
2018-07-23T16:11:04.177Z,95748.00
2018-07-23T16:16:33.792Z,95751.00
2018-07-23T16:22:03.480Z,95753.00
2018-07-23T16:27:32.787Z,95745.00
2018-07-23T16:33:02.055Z,95743.00
2018-07-23T16:38:31.295Z,95738.00
2018-07-23T16:44:00.548Z,95738.00
2018-07-23T16:49:29.924Z,95739.00
2018-07-23T16:54:59.182Z,95740.00
2018-07-23T17:00:29.018Z,95751.00
2018-07-23T17:05:58.660Z,95755.00
2018-07-23T17:11:28.058Z,95766.00
2018-07-23T17:16:57.440Z,95773.00
2018-07-23T17:22:28.090Z,95776.00
2018-07-23T17:27:57.462Z,95788.00
2018-07-23T17:33:26.684Z,95790.00
2018-07-23T17:38:56.273Z,95784.00
2018-07-23T17:44:25.458Z,95800.00
2018-07-23T17:49:55.078Z,95812.00
2018-07-23T17:55:24.347Z,95812.00
2018-07-23T18:00:53.618Z,95849.00
2018-07-23T18:06:23.151Z,95854.00
2018-07-23T18:11:56.502Z,95860.00
2018-07-23T18:17:25.901Z,95870.00
2018-07-23T18:22:55.156Z,95855.00
2018-07-23T18:28:24.503Z,95854.00
2018-07-23T18:33:53.886Z,95850.00
2018-07-23T18:39:23.237Z,95858.00
2018-07-23T18:44:53.581Z,95861.00
2018-07-23T18:50:23.021Z,95854.00
2018-07-23T18:55:52.516Z,95851.00
2018-07-23T19:01:21.961Z,95862.00
2018-07-23T19:06:51.649Z,95867.00
2018-07-23T19:12:21.161Z,95867.00
2018-07-23T19:17:50.628Z,95869.00
2018-07-23T19:23:21.036Z,95872.00
2018-07-23T19:28:50.392Z,95877.00
2018-07-23T19:34:19.862Z,95872.00
2018-07-23T19:39:49.202Z,95877.00
2018-07-23T19:45:18.531Z,95900.00
2018-07-23T19:50:48.012Z,95901.00
2018-07-23T19:56:17.299Z,95910.00
2018-07-23T20:01:46.795Z,95924.00
2018-07-23T20:07:16.073Z,95915.00
2018-07-23T20:12:45.323Z,95916.00
2018-07-23T20:18:14.625Z,95907.00
2018-07-23T20:23:44.375Z,95908.00
2018-07-23T20:29:13.762Z,95897.00
2018-07-23T20:34:43.091Z,95896.00
2018-07-23T20:40:12.462Z,95889.00
2018-07-23T20:45:41.715Z,95889.00
2018-07-23T20:51:11.175Z,95887.00
2018-07-23T20:56:40.511Z,95867.00
2018-07-23T21:02:09.850Z,95871.00
2018-07-23T21:07:39.119Z,95869.00
2018-07-23T21:13:08.448Z,95863.00
2018-07-23T21:18:37.685Z,95867.00
2018-07-23T21:24:06.998Z,95866.00
2018-07-23T21:29:36.345Z,95856.00
2018-07-23T21:35:05.997Z,95855.00
2018-07-23T21:40:35.356Z,95853.00
2018-07-23T21:46:04.895Z,95858.00
2018-07-23T21:51:34.292Z,95858.00
2018-07-23T21:57:03.716Z,95852.00
2018-07-23T22:02:33.463Z,95854.00
2018-07-23T22:08:02.780Z,95854.00
2018-07-23T22:13:32.015Z,95856.00
2018-07-23T22:19:01.486Z,95848.00
2018-07-23T22:24:30.790Z,95849.00
2018-07-23T22:30:00.029Z,95843.00
2018-07-23T22:35:29.218Z,95839.00
2018-07-23T22:40:58.531Z,95844.00
2018-07-23T22:46:27.782Z,95837.00
2018-07-23T22:51:57.079Z,95839.00
2018-07-23T22:57:26.349Z,95839.00
2018-07-23T23:02:55.817Z,95833.00
2018-07-23T23:08:25.169Z,95840.00
2018-07-23T23:13:54.527Z,95837.00
2018-07-23T23:19:23.937Z,95826.00
2018-07-23T23:24:53.268Z,95823.00
2018-07-23T23:30:22.671Z,95815.00
2018-07-23T23:35:52.077Z,95808.00
2018-07-23T23:41:21.500Z,95806.00
2018-07-23T23:46:50.841Z,95800.00
2018-07-23T23:52:20.180Z,95804.00
2018-07-23T23:57:49.531Z,95796.00
